createdAt,value
2017-10-05T00:00:02.647Z,1014.82
2017-10-05T00:01:02.633Z,1014.78
2017-10-05T00:02:02.619Z,1014.71
2017-10-05T00:03:02.605Z,1014.75
2017-10-05T00:04:02.596Z,1014.69
2017-10-05T00:05:02.577Z,1014.66
2017-10-05T00:06:02.562Z,1014.66
2017-10-05T00:07:02.557Z,1014.59
2017-10-05T00:08:02.535Z,1014.58
2017-10-05T00:09:02.520Z,1014.57
2017-10-05T00:10:02.505Z,1014.47
2017-10-05T00:11:02.492Z,1014.39
2017-10-05T00:12:02.478Z,1014.43
2017-10-05T00:13:02.464Z,1014.35
2017-10-05T00:14:02.448Z,1014.35
2017-10-05T00:15:02.436Z,1014.32
2017-10-05T00:16:02.421Z,1014.30
2017-10-05T00:17:02.407Z,1014.29
2017-10-05T00:18:02.393Z,1014.24
2017-10-05T00:19:02.378Z,1014.23
2017-10-05T00:20:02.364Z,1014.18
2017-10-05T00:21:02.351Z,1014.13
2017-10-05T00:22:02.335Z,1014.13
2017-10-05T00:23:02.321Z,1014.12
2017-10-05T00:24:02.308Z,1014.14
2017-10-05T00:25:02.294Z,1014.10
2017-10-05T00:26:02.279Z,1014.09
2017-10-05T00:27:02.264Z,1014.09
2017-10-05T00:28:02.251Z,1014.06
2017-10-05T00:29:02.237Z,1014.10
2017-10-05T00:30:02.223Z,1013.98
2017-10-05T00:31:02.208Z,1013.96
2017-10-05T00:32:02.194Z,1013.87
2017-10-05T00:33:02.181Z,1013.82
2017-10-05T00:34:02.168Z,1013.79
2017-10-05T00:35:02.152Z,1013.78
2017-10-05T00:36:02.139Z,1013.77
2017-10-05T00:37:02.124Z,1013.78
2017-10-05T00:38:02.109Z,1013.76
2017-10-05T00:39:02.095Z,1013.73
2017-10-05T00:40:02.082Z,1013.74
2017-10-05T00:41:02.067Z,1013.71
2017-10-05T00:42:02.053Z,1013.65
2017-10-05T00:43:02.039Z,1013.57
2017-10-05T00:44:02.025Z,1013.49
2017-10-05T00:45:02.011Z,1013.46
2017-10-05T00:46:01.997Z,1013.49
2017-10-05T00:47:01.982Z,1013.43
2017-10-05T00:48:01.968Z,1013.41
2017-10-05T00:49:01.955Z,1013.37
2017-10-05T00:50:01.939Z,1013.37
2017-10-05T00:51:01.926Z,1013.36
2017-10-05T00:52:01.911Z,1013.31
2017-10-05T00:53:01.897Z,1013.25
2017-10-05T00:54:01.882Z,1013.26
2017-10-05T00:55:01.869Z,1013.23
2017-10-05T00:56:01.854Z,1013.12
2017-10-05T00:57:01.841Z,1013.13
2017-10-05T00:58:01.826Z,1013.10
2017-10-05T00:59:01.812Z,1013.05
2017-10-05T01:00:01.798Z,1013.00
2017-10-05T01:01:01.785Z,1012.97
2017-10-05T01:02:01.770Z,1012.95
2017-10-05T01:03:01.756Z,1012.92
2017-10-05T01:04:01.741Z,1012.94
2017-10-05T01:05:01.728Z,1012.98
2017-10-05T01:06:01.712Z,1012.97
2017-10-05T01:07:01.699Z,1012.91
2017-10-05T01:08:01.684Z,1012.89
2017-10-05T01:09:01.671Z,1012.96
2017-10-05T01:10:01.656Z,1012.91
2017-10-05T01:11:01.642Z,1012.87
2017-10-05T01:12:01.628Z,1012.83
2017-10-05T01:13:01.614Z,1012.86
2017-10-05T01:14:01.598Z,1012.86
2017-10-05T01:15:01.585Z,1012.82
2017-10-05T01:16:01.572Z,1012.82
2017-10-05T01:17:01.562Z,1012.77
2017-10-05T01:18:01.543Z,1012.76
2017-10-05T01:19:01.529Z,1012.73
2017-10-05T01:20:01.515Z,1012.72
2017-10-05T01:21:01.500Z,1012.70
2017-10-05T01:22:01.486Z,1012.66
2017-10-05T01:23:01.472Z,1012.63
2017-10-05T01:24:01.457Z,1012.55
2017-10-05T01:25:01.444Z,1012.50
2017-10-05T01:26:01.430Z,1012.46
2017-10-05T01:27:01.415Z,1012.49
2017-10-05T01:28:01.401Z,1012.41
2017-10-05T01:29:01.389Z,1012.42
2017-10-05T01:30:01.372Z,1012.35
2017-10-05T01:31:01.358Z,1012.33
2017-10-05T01:32:01.344Z,1012.33
2017-10-05T01:33:01.330Z,1012.33
2017-10-05T01:34:01.314Z,1012.37
2017-10-05T01:35:01.307Z,1012.36
2017-10-05T01:36:01.287Z,1012.29
2017-10-05T01:37:01.273Z,1012.32
2017-10-05T01:38:01.258Z,1012.37
2017-10-05T01:39:01.244Z,1012.32
2017-10-05T01:40:01.232Z,1012.27
2017-10-05T01:41:01.216Z,1012.22
2017-10-05T01:42:01.207Z,1012.22
2017-10-05T01:43:01.187Z,1012.14
2017-10-05T01:44:01.174Z,1012.05
2017-10-05T01:45:01.160Z,1012.04
2017-10-05T01:46:01.144Z,1012.00
2017-10-05T01:47:01.129Z,1011.96
2017-10-05T01:48:01.117Z,1011.89
2017-10-05T01:49:01.102Z,1011.85
2017-10-05T01:50:01.087Z,1011.86
2017-10-05T01:51:01.074Z,1011.79
2017-10-05T01:52:01.065Z,1011.73
2017-10-05T01:53:01.045Z,1011.79
2017-10-05T01:54:01.030Z,1011.83
2017-10-05T01:55:01.016Z,1011.70
2017-10-05T01:56:01.002Z,1011.67
2017-10-05T01:57:00.988Z,1011.69
2017-10-05T01:58:00.973Z,1011.65
2017-10-05T01:59:00.960Z,1011.62
2017-10-05T02:00:00.945Z,1011.63
2017-10-05T02:01:00.932Z,1011.59
2017-10-05T02:02:00.917Z,1011.64
2017-10-05T02:03:00.903Z,1011.55
2017-10-05T02:04:00.892Z,1011.51
2017-10-05T02:05:00.874Z,1011.40
2017-10-05T02:06:00.859Z,1011.46
2017-10-05T02:07:00.845Z,1011.44
2017-10-05T02:08:00.832Z,1011.40
2017-10-05T02:09:00.817Z,1011.40
2017-10-05T02:10:00.802Z,1011.41
2017-10-05T02:11:00.789Z,1011.31
2017-10-05T02:12:00.775Z,1011.25
2017-10-05T02:13:00.761Z,1011.21
2017-10-05T02:14:00.746Z,1011.15
2017-10-05T02:15:00.731Z,1011.11
2017-10-05T02:16:00.716Z,1011.11
2017-10-05T02:17:00.703Z,1011.08
2017-10-05T02:18:00.688Z,1011.06
2017-10-05T02:19:00.674Z,1011.08
2017-10-05T02:20:00.660Z,1011.06
2017-10-05T02:21:00.646Z,1010.99
2017-10-05T02:22:00.631Z,1010.96
2017-10-05T02:23:00.616Z,1010.91
2017-10-05T02:24:00.603Z,1010.89
2017-10-05T02:25:00.589Z,1010.89
2017-10-05T02:26:00.574Z,1010.83
2017-10-05T02:27:00.560Z,1010.82
2017-10-05T02:28:00.546Z,1010.77
2017-10-05T02:29:00.531Z,1010.77
2017-10-05T02:30:00.516Z,1010.73
2017-10-05T02:31:00.503Z,1010.73
2017-10-05T02:32:00.488Z,1010.80
2017-10-05T02:33:00.474Z,1010.77
2017-10-05T02:34:00.459Z,1010.73
2017-10-05T02:35:00.445Z,1010.66
2017-10-05T02:36:00.431Z,1010.63
2017-10-05T02:37:00.424Z,1010.64
2017-10-05T02:38:00.403Z,1010.63
2017-10-05T02:39:00.388Z,1010.62
2017-10-05T02:40:00.374Z,1010.63
2017-10-05T02:41:00.361Z,1010.58
2017-10-05T02:42:00.350Z,1010.58
2017-10-05T02:43:00.330Z,1010.55
2017-10-05T02:44:00.317Z,1010.53
2017-10-05T02:45:00.304Z,1010.50
2017-10-05T02:46:00.288Z,1010.46
2017-10-05T02:47:00.274Z,1010.50
2017-10-05T02:48:00.260Z,1010.44
2017-10-05T02:49:00.246Z,1010.42
2017-10-05T02:50:00.232Z,1010.42
2017-10-05T02:51:00.217Z,1010.39
2017-10-05T02:52:00.203Z,1010.34
2017-10-05T02:53:00.189Z,1010.32
2017-10-05T02:54:00.172Z,1010.27
2017-10-05T02:55:00.165Z,1010.21
2017-10-05T02:56:00.146Z,1010.13
2017-10-05T02:57:00.132Z,1010.08
2017-10-05T02:58:00.117Z,1010.10
2017-10-05T02:59:00.102Z,1010.04
2017-10-05T03:00:00.089Z,1009.98
2017-10-05T03:01:00.075Z,1009.98
2017-10-05T03:02:00.060Z,1009.98
2017-10-05T03:03:00.046Z,1009.94
2017-10-05T03:04:00.032Z,1009.88
2017-10-05T03:05:00.018Z,1009.85
2017-10-05T03:06:00.003Z,1009.81
2017-10-05T03:06:59.988Z,1009.76
2017-10-05T03:07:59.975Z,1009.69
2017-10-05T03:08:59.961Z,1009.76
2017-10-05T03:09:59.944Z,1009.75
2017-10-05T03:10:59.931Z,1009.79
2017-10-05T03:11:59.918Z,1009.78
2017-10-05T03:12:59.906Z,1009.77
2017-10-05T03:13:59.888Z,1009.80
2017-10-05T03:14:59.874Z,1009.79
2017-10-05T03:15:59.860Z,1009.79
2017-10-05T03:16:59.846Z,1009.76
2017-10-05T03:17:59.832Z,1009.68
2017-10-05T03:18:59.817Z,1009.61
2017-10-05T03:19:59.804Z,1009.54
2017-10-05T03:20:59.789Z,1009.51
2017-10-05T03:21:59.774Z,1009.52
2017-10-05T03:22:59.760Z,1009.52
2017-10-05T03:23:59.746Z,1009.51
2017-10-05T03:24:59.732Z,1009.43
2017-10-05T03:25:59.719Z,1009.43
2017-10-05T03:26:59.703Z,1009.40
2017-10-05T03:27:59.690Z,1009.38
2017-10-05T03:28:59.675Z,1009.42
2017-10-05T03:29:59.663Z,1009.43
2017-10-05T03:30:59.647Z,1009.41
2017-10-05T03:31:59.635Z,1009.42
2017-10-05T03:32:59.618Z,1009.42
2017-10-05T03:33:59.603Z,1009.37
2017-10-05T03:34:59.590Z,1009.35
2017-10-05T03:35:59.573Z,1009.29
2017-10-05T03:36:59.562Z,1009.26
2017-10-05T03:37:59.548Z,1009.24
2017-10-05T03:38:59.532Z,1009.17
2017-10-05T03:39:59.518Z,1009.00
2017-10-05T03:40:59.504Z,1008.88
2017-10-05T03:41:59.489Z,1008.72
2017-10-05T03:42:59.474Z,1008.79
2017-10-05T03:43:59.461Z,1008.85
2017-10-05T03:44:59.447Z,1008.90
2017-10-05T03:45:59.433Z,1008.91
2017-10-05T03:46:59.418Z,1008.79
2017-10-05T03:47:59.409Z,1008.78
2017-10-05T03:48:59.390Z,1008.67
2017-10-05T03:49:59.385Z,1008.63
2017-10-05T03:50:59.360Z,1008.68
2017-10-05T03:51:59.347Z,1008.70
2017-10-05T03:52:59.332Z,1008.67
2017-10-05T03:53:59.318Z,1008.71
2017-10-05T03:54:59.304Z,1008.63
2017-10-05T03:55:59.298Z,1008.68
2017-10-05T03:56:59.275Z,1008.60
2017-10-05T03:57:59.260Z,1008.59
2017-10-05T03:58:59.246Z,1008.62
2017-10-05T03:59:59.234Z,1008.62
2017-10-05T04:00:59.218Z,1008.62
2017-10-05T04:01:59.202Z,1008.60
2017-10-05T04:02:59.193Z,1008.62
2017-10-05T04:03:59.175Z,1008.59
2017-10-05T04:04:59.161Z,1008.55
2017-10-05T04:05:59.147Z,1008.49
2017-10-05T04:06:59.132Z,1008.46
2017-10-05T04:07:59.118Z,1008.42
2017-10-05T04:08:59.103Z,1008.36
2017-10-05T04:09:59.089Z,1008.28
2017-10-05T04:10:59.075Z,1008.24
2017-10-05T04:11:59.061Z,1008.24
2017-10-05T04:12:59.047Z,1008.26
2017-10-05T04:13:59.034Z,1008.19
2017-10-05T04:14:59.017Z,1008.20
2017-10-05T04:15:59.003Z,1008.18
2017-10-05T04:16:58.990Z,1008.15
2017-10-05T04:17:58.974Z,1008.08
2017-10-05T04:18:58.958Z,1008.09
2017-10-05T04:19:58.946Z,1008.08
2017-10-05T04:20:58.931Z,1007.99
2017-10-05T04:21:58.916Z,1007.99
2017-10-05T04:22:58.902Z,1007.98
2017-10-05T04:23:58.887Z,1008.03
2017-10-05T04:24:58.874Z,1008.04
2017-10-05T04:25:58.858Z,1007.97
2017-10-05T04:26:58.845Z,1007.94
2017-10-05T04:27:58.830Z,1008.00
2017-10-05T04:28:58.817Z,1007.98
2017-10-05T04:29:58.802Z,1007.95
2017-10-05T04:30:58.788Z,1007.88
2017-10-05T04:31:58.774Z,1007.86
2017-10-05T04:32:58.760Z,1007.82
2017-10-05T04:33:58.744Z,1007.83
2017-10-05T04:34:58.730Z,1007.73
2017-10-05T04:35:58.716Z,1007.74
2017-10-05T04:36:58.719Z,1007.74
2017-10-05T04:37:58.687Z,1007.68
2017-10-05T04:38:58.673Z,1007.64
2017-10-05T04:39:58.659Z,1007.64
2017-10-05T04:41:58.630Z,1007.65
2017-10-05T04:42:58.616Z,1007.55
2017-10-05T04:43:58.602Z,1007.56
2017-10-05T04:44:58.587Z,1007.62
2017-10-05T04:45:58.573Z,1007.56
2017-10-05T04:46:58.557Z,1007.64
2017-10-05T04:47:58.544Z,1007.43
2017-10-05T04:48:58.530Z,1007.43
2017-10-05T04:49:58.515Z,1007.48
2017-10-05T04:50:58.501Z,1007.40
2017-10-05T04:51:58.487Z,1007.37
2017-10-05T04:52:58.472Z,1007.43
2017-10-05T04:53:58.458Z,1007.33
2017-10-05T04:54:58.443Z,1007.35
2017-10-05T04:55:58.429Z,1007.32
2017-10-05T04:56:58.416Z,1007.21
2017-10-05T04:57:58.401Z,1007.17
2017-10-05T04:58:58.388Z,1007.19
2017-10-05T04:59:58.372Z,1007.15
2017-10-05T05:00:58.359Z,1007.08
2017-10-05T05:01:58.342Z,1007.09
2017-10-05T05:02:58.330Z,1007.07
2017-10-05T05:03:58.315Z,1007.11
2017-10-05T05:04:58.301Z,1007.08
2017-10-05T05:05:58.290Z,1007.13
2017-10-05T05:06:58.273Z,1007.09
2017-10-05T05:07:58.268Z,1007.08
2017-10-05T05:08:58.249Z,1007.05
2017-10-05T05:09:58.233Z,1006.99
2017-10-05T05:10:58.217Z,1007.04
2017-10-05T05:11:58.201Z,1007.03
2017-10-05T05:12:58.187Z,1006.96
2017-10-05T05:13:58.172Z,1006.89
2017-10-05T05:14:58.159Z,1006.84
2017-10-05T05:16:58.131Z,1006.84
2017-10-05T05:17:58.115Z,1006.90
2017-10-05T05:18:58.102Z,1006.81
2017-10-05T05:19:58.089Z,1006.82
2017-10-05T05:20:58.074Z,1006.83
2017-10-05T05:21:58.059Z,1006.72
2017-10-05T05:22:58.045Z,1006.77
2017-10-05T05:23:58.032Z,1006.73
2017-10-05T05:24:58.017Z,1006.75
2017-10-05T05:25:58.002Z,1006.72
2017-10-05T05:26:57.988Z,1006.57
2017-10-05T05:27:57.975Z,1006.61
2017-10-05T05:28:57.965Z,1006.57
2017-10-05T05:29:57.946Z,1006.53
2017-10-05T05:30:57.932Z,1006.48
2017-10-05T05:31:57.918Z,1006.41
2017-10-05T05:32:57.904Z,1006.39
2017-10-05T05:33:57.889Z,1006.43
2017-10-05T05:34:57.875Z,1006.35
2017-10-05T05:35:57.861Z,1006.42
2017-10-05T05:36:57.847Z,1006.36
2017-10-05T05:37:57.832Z,1006.40
2017-10-05T05:38:57.818Z,1006.31
2017-10-05T05:39:57.804Z,1006.32
2017-10-05T05:40:57.790Z,1006.16
2017-10-05T05:41:57.775Z,1006.17
2017-10-05T05:42:57.763Z,1006.11
2017-10-05T05:43:57.747Z,1006.09
2017-10-05T05:44:57.733Z,1006.11
2017-10-05T05:45:57.719Z,1006.07
2017-10-05T05:46:57.704Z,1006.13
2017-10-05T05:47:57.690Z,1006.11
2017-10-05T05:48:57.676Z,1006.16
2017-10-05T05:49:57.662Z,1006.13
2017-10-05T05:50:57.647Z,1006.10
2017-10-05T05:51:57.638Z,1006.10
2017-10-05T05:52:57.620Z,1006.11
2017-10-05T05:53:57.605Z,1006.13
2017-10-05T05:54:57.590Z,1006.12
2017-10-05T05:55:57.577Z,1006.15
2017-10-05T05:56:57.562Z,1006.14
2017-10-05T05:57:57.548Z,1006.08
2017-10-05T05:58:57.533Z,1006.13
2017-10-05T05:59:57.520Z,1006.01
2017-10-05T06:00:57.511Z,1005.99
2017-10-05T06:01:57.490Z,1006.01
2017-10-05T06:02:57.476Z,1006.03
2017-10-05T06:03:57.462Z,1006.09
2017-10-05T06:04:57.448Z,1006.11
2017-10-05T06:05:57.434Z,1006.11
2017-10-05T06:06:57.419Z,1006.06
2017-10-05T06:07:57.411Z,1006.04
2017-10-05T06:08:57.391Z,1006.08
2017-10-05T06:09:57.376Z,1005.99
2017-10-05T06:10:57.363Z,1005.99
2017-10-05T06:11:57.350Z,1005.89
2017-10-05T06:12:57.334Z,1005.83
2017-10-05T06:13:57.319Z,1005.82
2017-10-05T06:14:57.305Z,1005.83
2017-10-05T06:15:57.291Z,1005.82
2017-10-05T06:16:57.277Z,1005.77
2017-10-05T06:17:57.263Z,1005.79
2017-10-05T06:18:57.248Z,1005.79
2017-10-05T06:19:57.234Z,1005.75
2017-10-05T06:20:57.221Z,1005.76
2017-10-05T06:21:57.205Z,1005.71
2017-10-05T06:22:57.192Z,1005.64
2017-10-05T06:23:57.177Z,1005.68
2017-10-05T06:24:57.168Z,1005.69
2017-10-05T06:25:57.147Z,1005.65
2017-10-05T06:26:57.134Z,1005.61
2017-10-05T06:27:57.119Z,1005.57
2017-10-05T06:28:57.105Z,1005.58
2017-10-05T06:29:57.106Z,1005.54
2017-10-05T06:30:57.076Z,1005.56
2017-10-05T06:31:57.062Z,1005.54
2017-10-05T06:32:57.048Z,1005.51
2017-10-05T06:33:57.034Z,1005.44
2017-10-05T06:34:57.019Z,1005.39
2017-10-05T06:35:57.005Z,1005.40
2017-10-05T06:36:56.990Z,1005.39
2017-10-05T06:37:56.979Z,1005.36
2017-10-05T06:38:56.962Z,1005.31
2017-10-05T06:39:56.947Z,1005.37
2017-10-05T06:40:56.933Z,1005.37
2017-10-05T06:41:56.917Z,1005.32
2017-10-05T06:42:56.904Z,1005.32
2017-10-05T06:43:56.889Z,1005.27
2017-10-05T06:44:56.875Z,1005.27
2017-10-05T06:45:56.860Z,1005.18
2017-10-05T06:46:56.847Z,1005.26
2017-10-05T06:47:56.833Z,1005.27
2017-10-05T06:48:56.818Z,1005.24
2017-10-05T06:49:56.804Z,1005.21
2017-10-05T06:50:56.793Z,1005.18
2017-10-05T06:51:56.774Z,1005.25
2017-10-05T06:52:56.760Z,1005.25
2017-10-05T06:53:56.747Z,1005.18
2017-10-05T06:54:56.732Z,1005.22
2017-10-05T06:55:56.717Z,1005.29
2017-10-05T06:56:56.702Z,1005.23
2017-10-05T06:57:56.688Z,1005.16
2017-10-05T06:58:56.673Z,1005.22
2017-10-05T06:59:56.662Z,1005.18
2017-10-05T07:00:56.645Z,1005.16
2017-10-05T07:01:56.630Z,1005.16
2017-10-05T07:02:56.615Z,1005.06
2017-10-05T07:03:56.601Z,1005.12
2017-10-05T07:04:56.589Z,1005.08
2017-10-05T07:05:56.572Z,1005.11
2017-10-05T07:06:56.558Z,1005.11
2017-10-05T07:07:56.543Z,1005.04
2017-10-05T07:08:56.530Z,1005.13
2017-10-05T07:09:56.514Z,1005.06
2017-10-05T07:10:56.501Z,1005.10
2017-10-05T07:11:56.486Z,1005.05
2017-10-05T07:12:56.473Z,1005.06
2017-10-05T07:13:56.456Z,1005.07
2017-10-05T07:14:56.441Z,1005.01
2017-10-05T07:15:56.428Z,1005.05
2017-10-05T07:16:56.414Z,1005.04
2017-10-05T07:17:56.399Z,1005.06
2017-10-05T07:18:56.385Z,1004.95
2017-10-05T07:19:56.370Z,1004.99
2017-10-05T07:20:56.371Z,1005.02
2017-10-05T07:21:56.340Z,1005.01
2017-10-05T07:22:56.326Z,1005.02
2017-10-05T07:23:56.312Z,1004.97
2017-10-05T07:24:56.298Z,1004.94
2017-10-05T07:25:56.285Z,1004.94
2017-10-05T07:26:56.269Z,1004.92
2017-10-05T07:27:56.255Z,1004.97
2017-10-05T07:28:56.242Z,1004.99
2017-10-05T07:29:56.225Z,1004.95
2017-10-05T07:30:56.210Z,1004.96
2017-10-05T07:31:56.197Z,1004.91
2017-10-05T07:32:56.183Z,1004.90
2017-10-05T07:33:56.167Z,1004.92
2017-10-05T07:34:56.153Z,1004.90
2017-10-05T07:35:56.139Z,1004.92
2017-10-05T07:36:56.124Z,1004.91
2017-10-05T07:37:56.110Z,1005.00
2017-10-05T07:38:56.096Z,1004.90
2017-10-05T07:39:56.087Z,1005.00
2017-10-05T07:40:56.067Z,1004.97
2017-10-05T07:41:56.051Z,1004.90
2017-10-05T07:42:56.037Z,1004.96
2017-10-05T07:43:56.023Z,1004.96
2017-10-05T07:44:56.025Z,1004.93
2017-10-05T07:45:55.994Z,1004.92
2017-10-05T07:46:55.980Z,1004.96
2017-10-05T07:47:55.965Z,1004.94
2017-10-05T07:48:55.956Z,1004.89
2017-10-05T07:49:55.936Z,1004.90
2017-10-05T07:50:55.924Z,1004.95
2017-10-05T07:51:55.907Z,1004.85
2017-10-05T07:52:55.893Z,1004.92
2017-10-05T07:53:55.879Z,1005.01
2017-10-05T07:54:55.862Z,1004.92
2017-10-05T07:55:55.850Z,1004.93
2017-10-05T07:56:55.835Z,1004.91
2017-10-05T07:57:55.819Z,1004.92
2017-10-05T07:58:55.805Z,1004.88
2017-10-05T07:59:55.790Z,1004.95
2017-10-05T08:00:55.776Z,1004.82
2017-10-05T08:01:55.762Z,1004.88
2017-10-05T08:02:55.747Z,1004.90
2017-10-05T08:03:55.733Z,1004.90
2017-10-05T08:04:55.718Z,1004.96
2017-10-05T08:05:55.709Z,1004.94
2017-10-05T08:06:55.689Z,1004.91
2017-10-05T08:07:55.688Z,1004.78
2017-10-05T08:08:55.661Z,1004.86
2017-10-05T08:09:55.645Z,1004.90
2017-10-05T08:10:55.633Z,1004.85
2017-10-05T08:11:55.616Z,1004.83
2017-10-05T08:12:55.602Z,1004.91
2017-10-05T08:13:55.587Z,1004.91
2017-10-05T08:14:55.573Z,1004.84
2017-10-05T08:15:55.565Z,1004.93
2017-10-05T08:16:55.544Z,1004.82
2017-10-05T08:17:55.529Z,1004.76
2017-10-05T08:18:55.515Z,1004.83
2017-10-05T08:19:55.501Z,1004.76
2017-10-05T08:20:55.486Z,1004.59
2017-10-05T08:21:55.471Z,1004.66
2017-10-05T08:22:55.457Z,1004.73
2017-10-05T08:23:55.445Z,1004.78
2017-10-05T08:24:55.430Z,1004.71
2017-10-05T08:25:55.413Z,1004.76
2017-10-05T08:26:55.399Z,1004.68
2017-10-05T08:27:55.384Z,1004.84
2017-10-05T08:28:55.370Z,1004.63
2017-10-05T08:29:55.355Z,1004.79
2017-10-05T08:30:55.341Z,1004.77
2017-10-05T08:31:55.327Z,1004.80
2017-10-05T08:32:55.313Z,1004.71
2017-10-05T08:33:55.297Z,1004.79
2017-10-05T08:34:55.283Z,1004.73
2017-10-05T08:35:55.270Z,1004.87
2017-10-05T08:36:55.256Z,1004.86
2017-10-05T08:37:55.240Z,1004.76
2017-10-05T08:38:55.230Z,1004.80
2017-10-05T08:39:55.211Z,1004.64
2017-10-05T08:40:55.197Z,1004.74
2017-10-05T08:41:55.182Z,1004.76
2017-10-05T08:42:55.168Z,1004.67
2017-10-05T08:43:55.153Z,1004.78
2017-10-05T08:44:55.141Z,1004.70
2017-10-05T08:45:55.124Z,1004.72
2017-10-05T08:46:55.110Z,1004.70
2017-10-05T08:47:55.097Z,1004.73
2017-10-05T08:48:55.082Z,1004.80
2017-10-05T08:49:55.067Z,1004.75
2017-10-05T08:50:55.053Z,1004.79
2017-10-05T08:51:55.039Z,1004.74
2017-10-05T08:52:55.025Z,1004.75
2017-10-05T08:53:55.009Z,1004.80
2017-10-05T08:54:54.995Z,1004.88
2017-10-05T08:55:54.981Z,1004.78
2017-10-05T08:56:54.967Z,1004.77
2017-10-05T08:57:54.952Z,1004.86
2017-10-05T08:58:54.938Z,1004.76
2017-10-05T08:59:54.924Z,1004.69
2017-10-05T09:00:54.911Z,1004.79
2017-10-05T09:01:54.893Z,1004.74
2017-10-05T09:02:54.880Z,1004.90
2017-10-05T09:03:54.866Z,1004.88
2017-10-05T09:04:54.852Z,1004.88
2017-10-05T09:05:54.838Z,1005.07
2017-10-05T09:06:54.823Z,1005.12
2017-10-05T09:07:54.809Z,1005.08
2017-10-05T09:08:54.796Z,1005.25
2017-10-05T09:09:54.781Z,1005.22
2017-10-05T09:10:54.767Z,1005.31
2017-10-05T09:11:54.752Z,1005.44
2017-10-05T09:12:54.739Z,1005.49
2017-10-05T09:13:54.724Z,1005.62
2017-10-05T09:14:54.709Z,1005.58
2017-10-05T09:15:54.696Z,1005.59
2017-10-05T09:16:54.687Z,1005.69
2017-10-05T09:17:54.667Z,1005.75
2017-10-05T09:18:54.652Z,1005.69
2017-10-05T09:19:54.638Z,1005.79
2017-10-05T09:20:54.625Z,1005.96
2017-10-05T09:21:54.613Z,1006.07
2017-10-05T09:22:54.599Z,1006.17
2017-10-05T09:23:54.582Z,1006.26
2017-10-05T09:24:54.568Z,1006.29
2017-10-05T09:25:54.553Z,1006.37
2017-10-05T09:26:54.541Z,1006.33
2017-10-05T09:27:54.526Z,1006.56
2017-10-05T09:28:54.511Z,1006.35
2017-10-05T09:29:54.500Z,1006.39
2017-10-05T09:30:54.482Z,1006.60
2017-10-05T09:31:54.469Z,1006.50
2017-10-05T09:32:54.456Z,1006.45
2017-10-05T09:33:54.440Z,1006.61
2017-10-05T09:34:54.426Z,1006.57
2017-10-05T09:35:54.412Z,1006.67
2017-10-05T09:36:54.398Z,1006.69
2017-10-05T09:37:54.383Z,1006.65
2017-10-05T09:38:54.369Z,1006.76
2017-10-05T09:39:54.356Z,1006.82
2017-10-05T09:40:54.342Z,1006.94
2017-10-05T09:41:54.329Z,1006.97
2017-10-05T09:42:54.314Z,1006.92
2017-10-05T09:43:54.300Z,1006.91
2017-10-05T09:44:54.288Z,1006.96
2017-10-05T09:45:54.273Z,1006.97
2017-10-05T09:46:54.259Z,1007.10
2017-10-05T09:47:54.246Z,1007.06
2017-10-05T09:48:54.232Z,1007.15
2017-10-05T09:49:54.218Z,1007.17
2017-10-05T09:50:54.204Z,1007.32
2017-10-05T09:51:54.189Z,1007.27
2017-10-05T09:52:54.177Z,1007.35
2017-10-05T09:53:54.163Z,1007.35
2017-10-05T09:54:54.149Z,1007.42
2017-10-05T09:55:54.136Z,1007.45
2017-10-05T09:56:54.122Z,1007.40
2017-10-05T09:57:54.109Z,1007.54
2017-10-05T09:58:54.097Z,1007.50
2017-10-05T09:59:54.081Z,1007.54
2017-10-05T10:00:54.070Z,1007.62
2017-10-05T10:01:54.054Z,1007.71
2017-10-05T10:02:54.041Z,1007.73
2017-10-05T10:03:54.027Z,1007.71
2017-10-05T10:04:54.013Z,1007.76
2017-10-05T10:05:53.999Z,1007.76
2017-10-05T10:06:53.986Z,1007.81
2017-10-05T10:07:53.973Z,1007.87
2017-10-05T10:08:53.959Z,1007.84
2017-10-05T10:09:53.946Z,1007.92
2017-10-05T10:10:53.932Z,1007.93
2017-10-05T10:11:53.919Z,1007.87
2017-10-05T10:12:53.906Z,1007.84
2017-10-05T10:13:53.892Z,1007.84
2017-10-05T10:14:53.879Z,1008.00
2017-10-05T10:15:53.866Z,1008.09
2017-10-05T10:16:53.854Z,1008.07
2017-10-05T10:17:53.839Z,1008.13
2017-10-05T10:18:53.826Z,1008.14
2017-10-05T10:19:53.812Z,1008.15
2017-10-05T10:20:53.800Z,1008.22
2017-10-05T10:21:53.785Z,1008.12
2017-10-05T10:22:53.772Z,1008.21
2017-10-05T10:23:53.759Z,1008.42
2017-10-05T10:24:53.746Z,1008.42
2017-10-05T10:25:53.731Z,1008.45
2017-10-05T10:26:53.718Z,1008.38
2017-10-05T10:27:53.704Z,1008.58
2017-10-05T10:28:53.691Z,1008.56
2017-10-05T10:29:53.678Z,1008.62
2017-10-05T10:30:53.664Z,1008.63
2017-10-05T10:31:53.650Z,1008.72
2017-10-05T10:32:53.638Z,1008.67
2017-10-05T10:33:53.623Z,1008.64
2017-10-05T10:34:53.614Z,1008.74
2017-10-05T10:35:53.596Z,1008.81
2017-10-05T10:36:53.582Z,1008.85
2017-10-05T10:37:53.568Z,1008.84
2017-10-05T10:38:53.555Z,1008.83
2017-10-05T10:39:53.541Z,1008.92
2017-10-05T10:40:53.528Z,1008.92
2017-10-05T10:41:53.513Z,1008.98
2017-10-05T10:42:53.500Z,1009.03
2017-10-05T10:43:53.487Z,1009.03
2017-10-05T10:44:53.474Z,1009.09
2017-10-05T10:45:53.459Z,1009.16
2017-10-05T10:46:53.445Z,1009.15
2017-10-05T10:47:53.433Z,1009.14
2017-10-05T10:48:53.419Z,1009.23
2017-10-05T10:49:53.404Z,1009.23
2017-10-05T10:50:53.392Z,1009.33
2017-10-05T10:51:53.378Z,1009.33
2017-10-05T10:52:53.365Z,1009.34
2017-10-05T10:53:53.350Z,1009.45
2017-10-05T10:54:53.337Z,1009.55
2017-10-05T10:55:53.324Z,1009.57
2017-10-05T10:56:53.311Z,1009.70
2017-10-05T10:57:53.297Z,1009.62
2017-10-05T10:58:53.284Z,1009.63
2017-10-05T10:59:53.271Z,1009.75
2017-10-05T11:00:53.258Z,1009.69
2017-10-05T11:01:53.246Z,1009.82
2017-10-05T11:02:53.232Z,1009.75
2017-10-05T11:03:53.219Z,1009.78
2017-10-05T11:04:53.207Z,1009.70
2017-10-05T11:05:53.203Z,1009.88
2017-10-05T11:06:53.183Z,1009.73
2017-10-05T11:07:53.171Z,1009.82
2017-10-05T11:08:53.160Z,1009.99
2017-10-05T11:09:53.146Z,1009.96
2017-10-05T11:10:53.135Z,1009.92
2017-10-05T11:11:53.123Z,1009.94
2017-10-05T11:12:53.112Z,1009.84
2017-10-05T11:13:53.100Z,1009.98
2017-10-05T11:14:53.089Z,1009.92
2017-10-05T11:15:53.077Z,1009.95
2017-10-05T11:16:53.065Z,1010.03
2017-10-05T11:17:53.053Z,1010.13
2017-10-05T11:18:53.042Z,1010.03
2017-10-05T11:19:53.034Z,1009.98
2017-10-05T11:20:53.019Z,1010.05
2017-10-05T11:21:53.006Z,1010.10
2017-10-05T11:22:52.995Z,1010.03
2017-10-05T11:23:52.990Z,1010.12
2017-10-05T11:24:52.972Z,1010.14
2017-10-05T11:25:52.959Z,1010.22
2017-10-05T11:26:52.947Z,1010.17
2017-10-05T11:27:52.935Z,1010.14
2017-10-05T11:28:52.923Z,1010.25
2017-10-05T11:29:52.913Z,1010.19
2017-10-05T11:30:52.898Z,1010.37
2017-10-05T11:31:52.886Z,1010.38
2017-10-05T11:32:52.874Z,1010.32
2017-10-05T11:33:52.863Z,1010.32
2017-10-05T11:34:52.848Z,1010.33
2017-10-05T11:35:52.837Z,1010.31
2017-10-05T11:36:52.825Z,1010.32
2017-10-05T11:37:52.813Z,1010.45
2017-10-05T11:38:52.801Z,1010.41
2017-10-05T11:39:52.789Z,1010.38
2017-10-05T11:40:52.778Z,1010.55
2017-10-05T11:41:52.765Z,1010.50
2017-10-05T11:42:52.753Z,1010.41
2017-10-05T11:43:52.743Z,1010.42
2017-10-05T11:44:52.732Z,1010.50
2017-10-05T11:45:52.722Z,1010.52
2017-10-05T11:46:52.708Z,1010.55
2017-10-05T11:47:52.698Z,1010.55
2017-10-05T11:48:52.694Z,1010.56
2017-10-05T11:49:52.676Z,1010.63
2017-10-05T11:50:52.665Z,1010.61
2017-10-05T11:51:52.659Z,1010.65
2017-10-05T11:52:52.645Z,1010.68
2017-10-05T11:53:52.633Z,1010.72
2017-10-05T11:54:52.628Z,1010.78
2017-10-05T11:55:52.614Z,1010.76
2017-10-05T11:56:52.603Z,1010.80
2017-10-05T11:57:52.593Z,1010.76
2017-10-05T11:58:52.582Z,1010.88
2017-10-05T11:59:52.573Z,1010.80
2017-10-05T12:00:52.563Z,1010.96
2017-10-05T12:01:52.552Z,1010.84
2017-10-05T12:02:52.543Z,1010.95
2017-10-05T12:03:52.537Z,1010.94
2017-10-05T12:04:52.523Z,1011.01
2017-10-05T12:05:52.512Z,1011.00
2017-10-05T12:06:52.510Z,1011.13